sensor_id;sensor_type;location;lat;lon;timestamp;P1;durP1;ratioP1;P2;durP2;ratioP2
3549;SDS011;45572;48.804;8.330;2023-04-06T00:02:22;7.05;;;4.18;;
3549;SDS011;45572;48.804;8.330;2023-04-06T00:04:51;7.45;;;3.88;;
3549;SDS011;45572;48.804;8.330;2023-04-06T00:07:18;3.78;;;3.30;;
3549;SDS011;45572;48.804;8.330;2023-04-06T00:12:34;5.78;;;3.65;;
3549;SDS011;45572;48.804;8.330;2023-04-06T00:15:02;6.65;;;4.03;;
3549;SDS011;45572;48.804;8.330;2023-04-06T00:17:31;9.23;;;3.35;;
3549;SDS011;45572;48.804;8.330;2023-04-06T00:19:59;7.90;;;3.83;;
3549;SDS011;45572;48.804;8.330;2023-04-06T00:22:27;7.20;;;3.60;;
3549;SDS011;45572;48.804;8.330;2023-04-06T00:24:55;6.25;;;4.30;;
3549;SDS011;45572;48.804;8.330;2023-04-06T00:27:22;4.53;;;3.65;;
3549;SDS011;45572;48.804;8.330;2023-04-06T00:29:52;4.97;;;3.50;;
3549;SDS011;45572;48.804;8.330;2023-04-06T00:32:20;5.32;;;3.58;;
3549;SDS011;45572;48.804;8.330;2023-04-06T00:34:47;4.28;;;3.03;;
3549;SDS011;45572;48.804;8.330;2023-04-06T00:37:15;6.22;;;3.42;;
3549;SDS011;45572;48.804;8.330;2023-04-06T00:39:43;6.82;;;3.30;;
3549;SDS011;45572;48.804;8.330;2023-04-06T00:42:11;3.95;;;3.20;;
3549;SDS011;45572;48.804;8.330;2023-04-06T00:44:40;7.72;;;4.32;;
3549;SDS011;45572;48.804;8.330;2023-04-06T00:47:09;3.58;;;2.58;;
3549;SDS011;45572;48.804;8.330;2023-04-06T00:49:37;3.42;;;3.10;;
3549;SDS011;45572;48.804;8.330;2023-04-06T00:52:06;5.07;;;3.42;;
3549;SDS011;45572;48.804;8.330;2023-04-06T00:54:35;5.80;;;3.60;;
3549;SDS011;45572;48.804;8.330;2023-04-06T00:57:03;5.00;;;3.75;;
3549;SDS011;45572;48.804;8.330;2023-04-06T00:59:31;4.57;;;3.00;;
3549;SDS011;45572;48.804;8.330;2023-04-06T01:02:01;10.60;;;3.85;;
3549;SDS011;45572;48.804;8.330;2023-04-06T01:04:36;5.82;;;3.95;;
3549;SDS011;45572;48.804;8.330;2023-04-06T01:07:08;8.90;;;3.80;;
3549;SDS011;45572;48.804;8.330;2023-04-06T01:09:44;4.70;;;3.13;;
3549;SDS011;45572;48.804;8.330;2023-04-06T01:12:18;10.90;;;3.85;;
3549;SDS011;45572;48.804;8.330;2023-04-06T01:14:46;5.22;;;3.50;;
3549;SDS011;45572;48.804;8.330;2023-04-06T01:17:14;5.82;;;3.40;;
3549;SDS011;45572;48.804;8.330;2023-04-06T01:19:45;4.20;;;3.30;;
3549;SDS011;45572;48.804;8.330;2023-04-06T01:22:23;4.30;;;3.17;;
3549;SDS011;45572;48.804;8.330;2023-04-06T01:25:01;3.33;;;3.00;;
3549;SDS011;45572;48.804;8.330;2023-04-06T01:27:40;3.53;;;3.22;;
3549;SDS011;45572;48.804;8.330;2023-04-06T01:30:23;10.80;;;3.17;;
3549;SDS011;45572;48.804;8.330;2023-04-06T01:32:56;5.63;;;2.83;;
3549;SDS011;45572;48.804;8.330;2023-04-06T01:35:36;4.60;;;3.30;;
3549;SDS011;45572;48.804;8.330;2023-04-06T01:38:14;4.20;;;2.83;;
3549;SDS011;45572;48.804;8.330;2023-04-06T01:40:43;4.43;;;3.40;;
3549;SDS011;45572;48.804;8.330;2023-04-06T01:43:11;7.78;;;3.30;;
3549;SDS011;45572;48.804;8.330;2023-04-06T01:45:56;4.95;;;2.85;;
3549;SDS011;45572;48.804;8.330;2023-04-06T01:48:29;4.65;;;2.97;;
3549;SDS011;45572;48.804;8.330;2023-04-06T02:04:25;3.65;;;2.40;;
3549;SDS011;45572;48.804;8.330;2023-04-06T02:07:04;9.77;;;4.00;;
3549;SDS011;45572;48.804;8.330;2023-04-06T02:12:22;6.05;;;3.35;;
3549;SDS011;45572;48.804;8.330;2023-04-06T02:14:51;6.43;;;3.58;;
3549;SDS011;45572;48.804;8.330;2023-04-06T02:17:19;3.80;;;3.00;;
3549;SDS011;45572;48.804;8.330;2023-04-06T02:19:48;7.47;;;4.18;;
3549;SDS011;45572;48.804;8.330;2023-04-06T02:22:16;4.82;;;3.10;;
3549;SDS011;45572;48.804;8.330;2023-04-06T02:24:44;4.32;;;3.92;;
3549;SDS011;45572;48.804;8.330;2023-04-06T02:27:13;4.35;;;3.60;;
3549;SDS011;45572;48.804;8.330;2023-04-06T02:29:45;4.93;;;3.10;;
3549;SDS011;45572;48.804;8.330;2023-04-06T02:32:18;5.30;;;3.20;;
3549;SDS011;45572;48.804;8.330;2023-04-06T02:34:46;4.32;;;2.75;;
3549;SDS011;45572;48.804;8.330;2023-04-06T02:37:18;3.38;;;2.60;;
3549;SDS011;45572;48.804;8.330;2023-04-06T02:39:46;3.75;;;2.70;;
3549;SDS011;45572;48.804;8.330;2023-04-06T02:42:15;4.93;;;3.28;;
3549;SDS011;45572;48.804;8.330;2023-04-06T02:44:45;5.15;;;2.67;;
3549;SDS011;45572;48.804;8.330;2023-04-06T02:47:13;6.25;;;4.03;;
3549;SDS011;45572;48.804;8.330;2023-04-06T02:49:45;3.85;;;3.42;;
3549;SDS011;45572;48.804;8.330;2023-04-06T02:52:17;3.25;;;2.95;;
3549;SDS011;45572;48.804;8.330;2023-04-06T02:54:45;5.70;;;3.20;;
3549;SDS011;45572;48.804;8.330;2023-04-06T02:57:18;4.43;;;3.50;;
3549;SDS011;45572;48.804;8.330;2023-04-06T02:59:46;5.57;;;3.55;;
3549;SDS011;45572;48.804;8.330;2023-04-06T03:02:19;3.47;;;3.08;;
3549;SDS011;45572;48.804;8.330;2023-04-06T03:04:47;8.27;;;3.47;;
3549;SDS011;45572;48.804;8.330;2023-04-06T03:07:29;5.03;;;3.35;;
3549;SDS011;45572;48.804;8.330;2023-04-06T03:09:57;8.52;;;3.70;;
3549;SDS011;45572;48.804;8.330;2023-04-06T03:12:25;4.13;;;3.30;;
3549;SDS011;45572;48.804;8.330;2023-04-06T03:15:13;6.57;;;3.33;;
3549;SDS011;45572;48.804;8.330;2023-04-06T03:17:46;4.57;;;3.28;;
3549;SDS011;45572;48.804;8.330;2023-04-06T03:20:29;5.15;;;3.40;;
3549;SDS011;45572;48.804;8.330;2023-04-06T03:22:58;6.50;;;3.45;;
3549;SDS011;45572;48.804;8.330;2023-04-06T03:25:29;3.53;;;2.97;;
3549;SDS011;45572;48.804;8.330;2023-04-06T03:28:01;6.15;;;3.45;;
3549;SDS011;45572;48.804;8.330;2023-04-06T03:30:33;4.70;;;3.20;;
3549;SDS011;45572;48.804;8.330;2023-04-06T03:33:01;3.92;;;3.47;;
3549;SDS011;45572;48.804;8.330;2023-04-06T03:35:34;5.38;;;3.70;;
3549;SDS011;45572;48.804;8.330;2023-04-06T03:38:05;3.92;;;3.55;;
3549;SDS011;45572;48.804;8.330;2023-04-06T03:40:33;5.43;;;3.05;;
3549;SDS011;45572;48.804;8.330;2023-04-06T03:43:01;3.65;;;3.22;;
3549;SDS011;45572;48.804;8.330;2023-04-06T03:45:33;4.07;;;3.58;;
3549;SDS011;45572;48.804;8.330;2023-04-06T03:48:01;4.65;;;4.05;;
3549;SDS011;45572;48.804;8.330;2023-04-06T03:50:32;3.78;;;3.10;;
3549;SDS011;45572;48.804;8.330;2023-04-06T03:53:00;4.45;;;3.20;;
3549;SDS011;45572;48.804;8.330;2023-04-06T03:55:30;5.20;;;3.33;;
3549;SDS011;45572;48.804;8.330;2023-04-06T03:57:58;4.68;;;3.67;;
3549;SDS011;45572;48.804;8.330;2023-04-06T04:00:26;3.63;;;3.03;;
3549;SDS011;45572;48.804;8.330;2023-04-06T04:05:51;6.10;;;3.50;;
3549;SDS011;45572;48.804;8.330;2023-04-06T04:08:19;4.20;;;2.90;;
3549;SDS011;45572;48.804;8.330;2023-04-06T04:13:43;5.18;;;3.35;;
3549;SDS011;45572;48.804;8.330;2023-04-06T04:16:12;5.45;;;4.32;;
3549;SDS011;45572;48.804;8.330;2023-04-06T04:18:42;6.90;;;3.72;;
3549;SDS011;45572;48.804;8.330;2023-04-06T04:24:08;6.85;;;3.85;;
3549;SDS011;45572;48.804;8.330;2023-04-06T04:26:36;11.68;;;4.53;;
3549;SDS011;45572;48.804;8.330;2023-04-06T04:29:07;4.40;;;3.53;;
3549;SDS011;45572;48.804;8.330;2023-04-06T04:34:14;4.43;;;2.95;;
3549;SDS011;45572;48.804;8.330;2023-04-06T04:36:42;7.22;;;4.20;;
3549;SDS011;45572;48.804;8.330;2023-04-06T04:39:16;4.38;;;3.38;;
3549;SDS011;45572;48.804;8.330;2023-04-06T04:44:33;6.20;;;4.07;;
3549;SDS011;45572;48.804;8.330;2023-04-06T04:47:02;4.72;;;4.10;;
3549;SDS011;45572;48.804;8.330;2023-04-06T04:49:39;5.07;;;4.00;;
3549;SDS011;45572;48.804;8.330;2023-04-06T04:52:07;7.32;;;3.95;;
3549;SDS011;45572;48.804;8.330;2023-04-06T04:54:46;8.50;;;3.90;;
3549;SDS011;45572;48.804;8.330;2023-04-06T04:57:21;6.13;;;3.95;;
3549;SDS011;45572;48.804;8.330;2023-04-06T04:59:50;7.07;;;4.13;;
3549;SDS011;45572;48.804;8.330;2023-04-06T05:02:21;5.35;;;4.20;;
3549;SDS011;45572;48.804;8.330;2023-04-06T05:05:02;8.35;;;4.10;;
3549;SDS011;45572;48.804;8.330;2023-04-06T05:07:35;4.35;;;3.95;;
3549;SDS011;45572;48.804;8.330;2023-04-06T05:10:05;5.60;;;4.07;;
3549;SDS011;45572;48.804;8.330;2023-04-06T05:12:40;5.85;;;4.68;;
3549;SDS011;45572;48.804;8.330;2023-04-06T05:15:11;6.63;;;4.05;;
3549;SDS011;45572;48.804;8.330;2023-04-06T05:17:40;4.13;;;3.50;;
3549;SDS011;45572;48.804;8.330;2023-04-06T05:20:11;5.18;;;4.00;;
3549;SDS011;45572;48.804;8.330;2023-04-06T05:22:45;5.70;;;4.10;;
3549;SDS011;45572;48.804;8.330;2023-04-06T05:25:14;6.80;;;4.40;;
3549;SDS011;45572;48.804;8.330;2023-04-06T05:27:44;6.40;;;4.47;;
3549;SDS011;45572;48.804;8.330;2023-04-06T05:30:26;7.68;;;4.93;;
3549;SDS011;45572;48.804;8.330;2023-04-06T05:32:54;6.20;;;4.60;;
3549;SDS011;45572;48.804;8.330;2023-04-06T05:35:25;8.52;;;4.70;;
3549;SDS011;45572;48.804;8.330;2023-04-06T05:37:58;7.55;;;4.88;;
3549;SDS011;45572;48.804;8.330;2023-04-06T05:40:26;7.82;;;4.80;;
3549;SDS011;45572;48.804;8.330;2023-04-06T05:42:55;8.07;;;4.70;;
3549;SDS011;45572;48.804;8.330;2023-04-06T05:45:23;7.00;;;5.15;;
3549;SDS011;45572;48.804;8.330;2023-04-06T05:47:56;7.65;;;4.50;;
3549;SDS011;45572;48.804;8.330;2023-04-06T05:50:27;8.50;;;6.13;;
3549;SDS011;45572;48.804;8.330;2023-04-06T05:52:56;7.35;;;5.93;;
3549;SDS011;45572;48.804;8.330;2023-04-06T05:55:29;8.85;;;6.03;;
3549;SDS011;45572;48.804;8.330;2023-04-06T05:58:16;11.98;;;7.25;;
3549;SDS011;45572;48.804;8.330;2023-04-06T06:00:46;11.80;;;7.57;;
3549;SDS011;45572;48.804;8.330;2023-04-06T06:03:17;9.40;;;6.45;;
3549;SDS011;45572;48.804;8.330;2023-04-06T06:05:51;9.68;;;6.53;;
3549;SDS011;45572;48.804;8.330;2023-04-06T06:08:27;14.73;;;8.25;;
3549;SDS011;45572;48.804;8.330;2023-04-06T06:10:56;12.82;;;8.07;;
3549;SDS011;45572;48.804;8.330;2023-04-06T06:13:24;13.10;;;7.32;;
3549;SDS011;45572;48.804;8.330;2023-04-06T06:15:54;10.43;;;6.70;;
3549;SDS011;45572;48.804;8.330;2023-04-06T06:18:24;13.85;;;7.35;;
3549;SDS011;45572;48.804;8.330;2023-04-06T06:20:53;10.10;;;7.13;;
3549;SDS011;45572;48.804;8.330;2023-04-06T06:23:21;9.20;;;7.15;;
3549;SDS011;45572;48.804;8.330;2023-04-06T06:25:48;12.70;;;7.15;;
3549;SDS011;45572;48.804;8.330;2023-04-06T06:28:18;10.30;;;6.35;;
3549;SDS011;45572;48.804;8.330;2023-04-06T06:30:47;9.18;;;5.70;;
3549;SDS011;45572;48.804;8.330;2023-04-06T06:33:27;7.97;;;4.97;;
3549;SDS011;45572;48.804;8.330;2023-04-06T06:35:57;7.28;;;4.47;;
3549;SDS011;45572;48.804;8.330;2023-04-06T06:38:25;6.10;;;3.97;;
3549;SDS011;45572;48.804;8.330;2023-04-06T06:40:54;7.45;;;4.05;;
3549;SDS011;45572;48.804;8.330;2023-04-06T06:43:26;6.05;;;3.85;;
3549;SDS011;45572;48.804;8.330;2023-04-06T06:45:58;7.18;;;4.50;;
3549;SDS011;45572;48.804;8.330;2023-04-06T06:48:27;7.55;;;4.55;;
3549;SDS011;45572;48.804;8.330;2023-04-06T06:50:59;6.32;;;4.65;;
3549;SDS011;45572;48.804;8.330;2023-04-06T06:53:27;8.32;;;5.65;;
3549;SDS011;45572;48.804;8.330;2023-04-06T06:55:57;8.20;;;5.18;;
3549;SDS011;45572;48.804;8.330;2023-04-06T06:58:25;10.85;;;5.40;;
3549;SDS011;45572;48.804;8.330;2023-04-06T07:00:55;7.28;;;4.70;;
3549;SDS011;45572;48.804;8.330;2023-04-06T07:03:25;8.57;;;4.50;;
3549;SDS011;45572;48.804;8.330;2023-04-06T07:05:56;7.10;;;4.35;;
3549;SDS011;45572;48.804;8.330;2023-04-06T07:08:24;6.10;;;4.35;;
3549;SDS011;45572;48.804;8.330;2023-04-06T07:10:52;6.63;;;4.18;;
3549;SDS011;45572;48.804;8.330;2023-04-06T07:13:22;5.30;;;4.28;;
3549;SDS011;45572;48.804;8.330;2023-04-06T07:15:53;5.70;;;4.40;;
3549;SDS011;45572;48.804;8.330;2023-04-06T07:18:21;5.97;;;4.35;;
3549;SDS011;45572;48.804;8.330;2023-04-06T07:20:50;4.53;;;4.07;;
3549;SDS011;45572;48.804;8.330;2023-04-06T07:23:18;5.20;;;3.50;;
3549;SDS011;45572;48.804;8.330;2023-04-06T07:25:46;5.33;;;3.50;;
3549;SDS011;45572;48.804;8.330;2023-04-06T07:28:17;4.60;;;3.40;;
3549;SDS011;45572;48.804;8.330;2023-04-06T07:30:44;7.43;;;4.57;;
3549;SDS011;45572;48.804;8.330;2023-04-06T07:33:14;4.80;;;3.97;;
3549;SDS011;45572;48.804;8.330;2023-04-06T07:35:42;4.90;;;4.20;;
3549;SDS011;45572;48.804;8.330;2023-04-06T07:38:12;5.60;;;4.03;;
3549;SDS011;45572;48.804;8.330;2023-04-06T07:40:40;4.97;;;3.60;;
3549;SDS011;45572;48.804;8.330;2023-04-06T07:43:08;6.57;;;4.30;;
3549;SDS011;45572;48.804;8.330;2023-04-06T07:45:36;5.80;;;4.20;;
3549;SDS011;45572;48.804;8.330;2023-04-06T07:48:04;4.13;;;3.67;;
3549;SDS011;45572;48.804;8.330;2023-04-06T07:50:33;6.93;;;4.23;;
3549;SDS011;45572;48.804;8.330;2023-04-06T07:53:02;5.47;;;4.20;;
3549;SDS011;45572;48.804;8.330;2023-04-06T07:55:31;7.13;;;5.10;;
3549;SDS011;45572;48.804;8.330;2023-04-06T07:57:58;7.53;;;4.50;;
3549;SDS011;45572;48.804;8.330;2023-04-06T08:00:26;14.00;;;6.13;;
3549;SDS011;45572;48.804;8.330;2023-04-06T08:02:54;6.03;;;4.37;;
3549;SDS011;45572;48.804;8.330;2023-04-06T08:05:22;4.60;;;3.80;;
3549;SDS011;45572;48.804;8.330;2023-04-06T08:07:50;5.30;;;4.17;;
3549;SDS011;45572;48.804;8.330;2023-04-06T08:10:17;6.40;;;4.20;;
3549;SDS011;45572;48.804;8.330;2023-04-06T08:12:46;4.63;;;3.90;;
3549;SDS011;45572;48.804;8.330;2023-04-06T08:15:14;4.27;;;3.40;;
3549;SDS011;45572;48.804;8.330;2023-04-06T08:17:44;5.50;;;3.93;;
3549;SDS011;45572;48.804;8.330;2023-04-06T08:20:11;6.03;;;4.40;;
3549;SDS011;45572;48.804;8.330;2023-04-06T08:22:39;4.17;;;3.77;;
3549;SDS011;45572;48.804;8.330;2023-04-06T08:25:07;6.60;;;3.40;;
3549;SDS011;45572;48.804;8.330;2023-04-06T08:27:35;4.90;;;3.37;;
3549;SDS011;45572;48.804;8.330;2023-04-06T08:30:04;5.23;;;2.83;;
3549;SDS011;45572;48.804;8.330;2023-04-06T08:32:32;3.27;;;2.90;;
3549;SDS011;45572;48.804;8.330;2023-04-06T08:35:00;9.10;;;3.67;;
3549;SDS011;45572;48.804;8.330;2023-04-06T08:37:28;5.80;;;3.63;;
3549;SDS011;45572;48.804;8.330;2023-04-06T08:39:57;4.63;;;3.43;;
3549;SDS011;45572;48.804;8.330;2023-04-06T08:42:25;4.77;;;3.30;;
3549;SDS011;45572;48.804;8.330;2023-04-06T08:44:56;5.30;;;3.77;;
3549;SDS011;45572;48.804;8.330;2023-04-06T08:47:26;4.17;;;3.30;;
3549;SDS011;45572;48.804;8.330;2023-04-06T08:49:54;4.53;;;3.70;;
3549;SDS011;45572;48.804;8.330;2023-04-06T08:52:28;3.50;;;3.20;;
3549;SDS011;45572;48.804;8.330;2023-04-06T08:54:58;3.73;;;3.03;;
3549;SDS011;45572;48.804;8.330;2023-04-06T08:57:26;5.03;;;3.50;;
3549;SDS011;45572;48.804;8.330;2023-04-06T08:59:54;4.40;;;3.23;;
3549;SDS011;45572;48.804;8.330;2023-04-06T09:02:23;5.30;;;3.63;;
3549;SDS011;45572;48.804;8.330;2023-04-06T09:04:53;6.73;;;4.40;;
3549;SDS011;45572;48.804;8.330;2023-04-06T09:07:23;6.60;;;4.80;;
3549;SDS011;45572;48.804;8.330;2023-04-06T09:09:53;6.17;;;3.87;;
3549;SDS011;45572;48.804;8.330;2023-04-06T09:18:00;8.20;;;5.37;;
3549;SDS011;45572;48.804;8.330;2023-04-06T09:20:30;5.73;;;4.83;;
3549;SDS011;45572;48.804;8.330;2023-04-06T09:22:57;8.27;;;5.27;;
3549;SDS011;45572;48.804;8.330;2023-04-06T09:25:25;12.57;;;6.40;;
3549;SDS011;45572;48.804;8.330;2023-04-06T09:28:01;7.53;;;5.00;;
3549;SDS011;45572;48.804;8.330;2023-04-06T09:30:30;6.30;;;4.17;;
3549;SDS011;45572;48.804;8.330;2023-04-06T09:35:48;9.33;;;5.40;;
3549;SDS011;45572;48.804;8.330;2023-04-06T09:38:16;6.50;;;5.43;;
3549;SDS011;45572;48.804;8.330;2023-04-06T09:40:48;8.70;;;5.37;;
3549;SDS011;45572;48.804;8.330;2023-04-06T09:43:27;4.30;;;3.90;;
3549;SDS011;45572;48.804;8.330;2023-04-06T09:45:55;7.00;;;4.97;;
3549;SDS011;45572;48.804;8.330;2023-04-06T09:48:23;6.70;;;4.37;;
3549;SDS011;45572;48.804;8.330;2023-04-06T09:50:57;6.27;;;5.37;;
3549;SDS011;45572;48.804;8.330;2023-04-06T09:53:30;5.37;;;4.03;;
3549;SDS011;45572;48.804;8.330;2023-04-06T09:56:02;6.47;;;5.00;;
3549;SDS011;45572;48.804;8.330;2023-04-06T09:58:32;6.80;;;4.53;;
3549;SDS011;45572;48.804;8.330;2023-04-06T10:01:06;6.63;;;4.90;;
3549;SDS011;45572;48.804;8.330;2023-04-06T10:03:41;7.63;;;5.50;;
3549;SDS011;45572;48.804;8.330;2023-04-06T10:06:18;6.77;;;5.00;;
3549;SDS011;45572;48.804;8.330;2023-04-06T10:08:49;10.30;;;4.63;;
3549;SDS011;45572;48.804;8.330;2023-04-06T10:11:22;5.00;;;4.50;;
3549;SDS011;45572;48.804;8.330;2023-04-06T10:13:50;8.73;;;5.30;;
3549;SDS011;45572;48.804;8.330;2023-04-06T10:16:17;5.40;;;4.60;;
3549;SDS011;45572;48.804;8.330;2023-04-06T10:18:46;7.83;;;4.83;;
3549;SDS011;45572;48.804;8.330;2023-04-06T10:21:19;5.43;;;4.10;;
3549;SDS011;45572;48.804;8.330;2023-04-06T10:23:51;6.60;;;4.97;;
3549;SDS011;45572;48.804;8.330;2023-04-06T10:26:21;7.40;;;4.50;;
3549;SDS011;45572;48.804;8.330;2023-04-06T10:28:49;9.03;;;4.40;;
3549;SDS011;45572;48.804;8.330;2023-04-06T10:31:24;5.40;;;4.40;;
3549;SDS011;45572;48.804;8.330;2023-04-06T10:33:53;7.80;;;4.40;;
3549;SDS011;45572;48.804;8.330;2023-04-06T10:36:24;7.37;;;5.57;;
3549;SDS011;45572;48.804;8.330;2023-04-06T10:38:54;7.70;;;5.63;;
3549;SDS011;45572;48.804;8.330;2023-04-06T10:41:24;6.50;;;5.00;;
3549;SDS011;45572;48.804;8.330;2023-04-06T10:44:00;6.60;;;4.87;;
3549;SDS011;45572;48.804;8.330;2023-04-06T10:46:31;8.87;;;6.07;;
3549;SDS011;45572;48.804;8.330;2023-04-06T10:49:09;7.23;;;5.03;;
3549;SDS011;45572;48.804;8.330;2023-04-06T10:51:40;8.93;;;5.73;;
3549;SDS011;45572;48.804;8.330;2023-04-06T10:54:08;8.33;;;4.90;;
3549;SDS011;45572;48.804;8.330;2023-04-06T10:56:38;6.43;;;5.00;;
3549;SDS011;45572;48.804;8.330;2023-04-06T10:59:06;6.13;;;4.40;;
3549;SDS011;45572;48.804;8.330;2023-04-06T11:01:34;5.80;;;4.80;;
3549;SDS011;45572;48.804;8.330;2023-04-06T11:04:02;6.10;;;4.50;;
3549;SDS011;45572;48.804;8.330;2023-04-06T11:06:30;7.20;;;4.57;;
3549;SDS011;45572;48.804;8.330;2023-04-06T11:09:00;7.10;;;5.30;;
3549;SDS011;45572;48.804;8.330;2023-04-06T11:11:28;7.83;;;5.20;;
3549;SDS011;45572;48.804;8.330;2023-04-06T11:13:56;9.53;;;5.23;;
3549;SDS011;45572;48.804;8.330;2023-04-06T11:16:25;9.40;;;5.63;;
3549;SDS011;45572;48.804;8.330;2023-04-06T11:18:54;8.70;;;4.77;;
3549;SDS011;45572;48.804;8.330;2023-04-06T11:24:11;6.90;;;4.60;;
3549;SDS011;45572;48.804;8.330;2023-04-06T11:26:45;8.13;;;4.80;;
3549;SDS011;45572;48.804;8.330;2023-04-06T11:29:15;8.07;;;5.50;;
3549;SDS011;45572;48.804;8.330;2023-04-06T11:31:45;8.03;;;5.43;;
3549;SDS011;45572;48.804;8.330;2023-04-06T11:34:17;8.03;;;4.93;;
3549;SDS011;45572;48.804;8.330;2023-04-06T11:36:46;6.33;;;4.57;;
3549;SDS011;45572;48.804;8.330;2023-04-06T11:39:19;7.70;;;5.23;;
3549;SDS011;45572;48.804;8.330;2023-04-06T11:41:48;8.50;;;5.10;;
3549;SDS011;45572;48.804;8.330;2023-04-06T11:44:28;8.63;;;5.63;;
3549;SDS011;45572;48.804;8.330;2023-04-06T11:46:58;7.83;;;5.23;;
3549;SDS011;45572;48.804;8.330;2023-04-06T11:49:28;9.20;;;5.53;;
3549;SDS011;45572;48.804;8.330;2023-04-06T11:51:56;10.40;;;5.40;;
3549;SDS011;45572;48.804;8.330;2023-04-06T11:54:31;8.00;;;5.97;;
3549;SDS011;45572;48.804;8.330;2023-04-06T11:57:01;6.77;;;5.47;;
3549;SDS011;45572;48.804;8.330;2023-04-06T11:59:31;6.57;;;4.50;;
3549;SDS011;45572;48.804;8.330;2023-04-06T12:02:02;9.37;;;5.30;;
3549;SDS011;45572;48.804;8.330;2023-04-06T12:04:32;5.40;;;4.30;;
3549;SDS011;45572;48.804;8.330;2023-04-06T12:07:02;6.93;;;4.37;;
3549;SDS011;45572;48.804;8.330;2023-04-06T12:09:33;8.07;;;5.30;;
3549;SDS011;45572;48.804;8.330;2023-04-06T12:12:05;7.53;;;5.50;;
3549;SDS011;45572;48.804;8.330;2023-04-06T12:14:33;5.30;;;4.77;;
3549;SDS011;45572;48.804;8.330;2023-04-06T12:17:00;6.60;;;4.90;;
3549;SDS011;45572;48.804;8.330;2023-04-06T12:19:29;5.97;;;4.87;;
3549;SDS011;45572;48.804;8.330;2023-04-06T12:22:02;8.07;;;5.03;;
3549;SDS011;45572;48.804;8.330;2023-04-06T12:24:34;6.27;;;5.20;;
3549;SDS011;45572;48.804;8.330;2023-04-06T12:27:02;6.80;;;5.00;;
3549;SDS011;45572;48.804;8.330;2023-04-06T12:29:36;9.67;;;4.93;;
3549;SDS011;45572;48.804;8.330;2023-04-06T12:32:04;6.73;;;4.23;;
3549;SDS011;45572;48.804;8.330;2023-04-06T12:34:34;6.33;;;3.97;;
3549;SDS011;45572;48.804;8.330;2023-04-06T12:37:02;8.73;;;5.53;;
3549;SDS011;45572;48.804;8.330;2023-04-06T12:39:29;10.43;;;5.20;;
3549;SDS011;45572;48.804;8.330;2023-04-06T12:41:59;6.88;;;4.70;;
3549;SDS011;45572;48.804;8.330;2023-04-06T12:44:27;8.75;;;4.43;;
3549;SDS011;45572;48.804;8.330;2023-04-06T12:46:58;7.22;;;4.28;;
3549;SDS011;45572;48.804;8.330;2023-04-06T12:49:26;8.23;;;4.45;;
3549;SDS011;45572;48.804;8.330;2023-04-06T12:51:55;4.65;;;3.80;;
3549;SDS011;45572;48.804;8.330;2023-04-06T12:54:23;5.53;;;3.90;;
3549;SDS011;45572;48.804;8.330;2023-04-06T12:56:52;7.25;;;3.90;;
3549;SDS011;45572;48.804;8.330;2023-04-06T12:59:24;5.28;;;3.95;;
3549;SDS011;45572;48.804;8.330;2023-04-06T13:01:53;7.30;;;4.22;;
3549;SDS011;45572;48.804;8.330;2023-04-06T13:04:23;6.55;;;5.00;;
3549;SDS011;45572;48.804;8.330;2023-04-06T13:06:52;7.35;;;4.25;;
3549;SDS011;45572;48.804;8.330;2023-04-06T13:09:20;6.67;;;4.30;;
3549;SDS011;45572;48.804;8.330;2023-04-06T13:11:48;8.43;;;5.38;;
3549;SDS011;45572;48.804;8.330;2023-04-06T13:14:16;7.70;;;5.50;;
3549;SDS011;45572;48.804;8.330;2023-04-06T13:16:45;8.98;;;5.47;;
3549;SDS011;45572;48.804;8.330;2023-04-06T13:19:13;9.70;;;5.47;;
3549;SDS011;45572;48.804;8.330;2023-04-06T13:21:41;8.60;;;5.85;;
3549;SDS011;45572;48.804;8.330;2023-04-06T13:24:09;10.20;;;4.28;;
3549;SDS011;45572;48.804;8.330;2023-04-06T13:26:37;10.65;;;4.80;;
3549;SDS011;45572;48.804;8.330;2023-04-06T13:29:05;8.68;;;4.70;;
3549;SDS011;45572;48.804;8.330;2023-04-06T13:31:35;8.07;;;4.07;;
3549;SDS011;45572;48.804;8.330;2023-04-06T13:34:05;6.45;;;4.25;;
3549;SDS011;45572;48.804;8.330;2023-04-06T13:36:33;11.18;;;5.15;;
3549;SDS011;45572;48.804;8.330;2023-04-06T13:39:01;7.93;;;4.10;;
3549;SDS011;45572;48.804;8.330;2023-04-06T13:41:31;6.38;;;3.25;;
3549;SDS011;45572;48.804;8.330;2023-04-06T13:43:59;6.88;;;4.57;;
3549;SDS011;45572;48.804;8.330;2023-04-06T13:46:28;7.25;;;4.20;;
3549;SDS011;45572;48.804;8.330;2023-04-06T13:48:56;6.43;;;4.00;;
3549;SDS011;45572;48.804;8.330;2023-04-06T13:51:26;6.40;;;4.22;;
3549;SDS011;45572;48.804;8.330;2023-04-06T13:53:53;6.82;;;4.00;;
3549;SDS011;45572;48.804;8.330;2023-04-06T13:56:21;5.47;;;3.45;;
3549;SDS011;45572;48.804;8.330;2023-04-06T13:58:49;6.15;;;3.80;;
3549;SDS011;45572;48.804;8.330;2023-04-06T14:01:21;5.20;;;3.45;;
3549;SDS011;45572;48.804;8.330;2023-04-06T14:03:49;5.95;;;3.33;;
3549;SDS011;45572;48.804;8.330;2023-04-06T14:06:17;4.38;;;3.33;;
3549;SDS011;45572;48.804;8.330;2023-04-06T14:08:58;6.60;;;4.00;;
3549;SDS011;45572;48.804;8.330;2023-04-06T14:11:26;7.03;;;4.15;;
3549;SDS011;45572;48.804;8.330;2023-04-06T14:13:53;6.15;;;4.30;;
3549;SDS011;45572;48.804;8.330;2023-04-06T14:16:24;9.43;;;5.32;;
3549;SDS011;45572;48.804;8.330;2023-04-06T14:18:53;7.78;;;3.80;;
3549;SDS011;45572;48.804;8.330;2023-04-06T14:21:23;8.80;;;4.80;;
3549;SDS011;45572;48.804;8.330;2023-04-06T14:23:53;8.45;;;4.25;;
3549;SDS011;45572;48.804;8.330;2023-04-06T14:26:26;5.95;;;3.80;;
3549;SDS011;45572;48.804;8.330;2023-04-06T14:28:53;4.80;;;3.75;;
3549;SDS011;45572;48.804;8.330;2023-04-06T14:31:21;9.35;;;4.97;;
3549;SDS011;45572;48.804;8.330;2023-04-06T14:33:49;12.60;;;4.72;;
3549;SDS011;45572;48.804;8.330;2023-04-06T14:36:17;7.18;;;4.57;;
3549;SDS011;45572;48.804;8.330;2023-04-06T14:38:45;13.95;;;5.78;;
3549;SDS011;45572;48.804;8.330;2023-04-06T14:44:04;10.95;;;5.50;;
3549;SDS011;45572;48.804;8.330;2023-04-06T14:46:32;11.95;;;5.25;;
3549;SDS011;45572;48.804;8.330;2023-04-06T14:49:00;9.07;;;5.65;;
3549;SDS011;45572;48.804;8.330;2023-04-06T14:51:29;12.85;;;5.20;;
3549;SDS011;45572;48.804;8.330;2023-04-06T14:53:57;8.80;;;6.30;;
3549;SDS011;45572;48.804;8.330;2023-04-06T14:56:24;10.80;;;5.80;;
3549;SDS011;45572;48.804;8.330;2023-04-06T14:58:52;15.43;;;6.15;;
3549;SDS011;45572;48.804;8.330;2023-04-06T15:04:12;10.05;;;5.30;;
3549;SDS011;45572;48.804;8.330;2023-04-06T15:06:41;8.63;;;5.10;;
3549;SDS011;45572;48.804;8.330;2023-04-06T15:09:09;7.82;;;4.85;;
3549;SDS011;45572;48.804;8.330;2023-04-06T15:14:33;7.43;;;4.78;;
3549;SDS011;45572;48.804;8.330;2023-04-06T15:17:01;8.00;;;4.85;;
3549;SDS011;45572;48.804;8.330;2023-04-06T15:19:30;7.95;;;5.07;;
3549;SDS011;45572;48.804;8.330;2023-04-06T15:24:48;9.70;;;5.82;;
3549;SDS011;45572;48.804;8.330;2023-04-06T15:27:16;9.48;;;5.32;;
3549;SDS011;45572;48.804;8.330;2023-04-06T15:29:44;10.90;;;5.50;;
3549;SDS011;45572;48.804;8.330;2023-04-06T15:32:11;14.18;;;5.57;;
3549;SDS011;45572;48.804;8.330;2023-04-06T15:34:41;5.88;;;4.75;;
3549;SDS011;45572;48.804;8.330;2023-04-06T15:37:09;13.02;;;5.43;;
3549;SDS011;45572;48.804;8.330;2023-04-06T15:39:36;10.90;;;4.63;;
3549;SDS011;45572;48.804;8.330;2023-04-06T15:42:04;8.68;;;5.53;;
3549;SDS011;45572;48.804;8.330;2023-04-06T15:44:32;8.40;;;5.32;;
3549;SDS011;45572;48.804;8.330;2023-04-06T15:46:59;9.85;;;5.50;;
3549;SDS011;45572;48.804;8.330;2023-04-06T15:49:27;13.57;;;4.35;;
3549;SDS011;45572;48.804;8.330;2023-04-06T15:51:57;8.88;;;4.95;;
3549;SDS011;45572;48.804;8.330;2023-04-06T15:54:25;5.43;;;3.78;;
3549;SDS011;45572;48.804;8.330;2023-04-06T15:56:54;7.28;;;4.47;;
3549;SDS011;45572;48.804;8.330;2023-04-06T15:59:22;16.20;;;5.45;;
3549;SDS011;45572;48.804;8.330;2023-04-06T16:01:49;9.70;;;5.35;;
3549;SDS011;45572;48.804;8.330;2023-04-06T16:04:17;6.65;;;4.55;;
3549;SDS011;45572;48.804;8.330;2023-04-06T16:06:45;9.60;;;4.90;;
3549;SDS011;45572;48.804;8.330;2023-04-06T16:09:15;6.55;;;4.93;;
3549;SDS011;45572;48.804;8.330;2023-04-06T16:11:42;10.90;;;7.15;;
3549;SDS011;45572;48.804;8.330;2023-04-06T16:14:10;15.23;;;8.30;;